createdAt,value
2022-08-07T00:01:44.306Z,2.25
2022-08-07T00:04:09.241Z,1.80
2022-08-07T00:06:41.026Z,2.10
2022-08-07T00:09:22.624Z,1.98
2022-08-07T00:11:54.280Z,2.20
2022-08-07T00:14:30.978Z,2.20
2022-08-07T00:17:01.897Z,2.22
2022-08-07T00:19:59.649Z,2.40
2022-08-07T00:22:34.501Z,2.67
2022-08-07T00:25:15.805Z,2.30
2022-08-07T00:27:52.243Z,2.40
2022-08-07T00:30:28.129Z,2.40
2022-08-07T00:33:00.776Z,2.35
2022-08-07T00:35:30.614Z,2.55
2022-08-07T00:37:59.025Z,2.60
2022-08-07T00:40:39.393Z,2.40
2022-08-07T00:43:58.997Z,2.58
2022-08-07T00:46:03.089Z,2.50
2022-08-07T00:48:32.295Z,2.97
2022-08-07T00:51:01.063Z,2.50
2022-08-07T00:53:39.271Z,2.58
2022-08-07T00:56:17.129Z,2.42
2022-08-07T00:58:46.887Z,3.03
2022-08-07T01:01:15.501Z,2.62
2022-08-07T01:03:57.391Z,2.70
2022-08-07T01:06:29.287Z,2.55
2022-08-07T01:08:58.643Z,3.10
2022-08-07T01:12:24.024Z,2.95
2022-08-07T01:14:21.390Z,2.60
2022-08-07T01:16:56.885Z,2.73
2022-08-07T01:19:26.963Z,2.70
2022-08-07T01:22:00.421Z,3.00
2022-08-07T01:24:32.029Z,2.87
2022-08-07T01:27:00.578Z,2.50
2022-08-07T01:29:31.503Z,3.10
2022-08-07T01:32:05.391Z,2.67
2022-08-07T01:34:33.665Z,3.37
2022-08-07T01:37:01.985Z,2.70
2022-08-07T01:39:41.246Z,3.10
2022-08-07T01:42:38.985Z,2.90
2022-08-07T01:45:04.912Z,3.05
2022-08-07T01:48:18.138Z,2.53
2022-08-07T01:50:29.205Z,2.92
2022-08-07T01:52:59.137Z,3.00
2022-08-07T01:55:29.033Z,3.10
2022-08-07T01:58:06.304Z,3.08
2022-08-07T02:00:50.659Z,3.30
2022-08-07T02:03:24.939Z,3.28
2022-08-07T02:06:08.926Z,3.10
2022-08-07T02:08:55.693Z,3.13
2022-08-07T02:11:30.759Z,3.20
2022-08-07T02:14:35.473Z,3.22
2022-08-07T02:17:01.537Z,2.78
2022-08-07T02:20:04.851Z,3.15
2022-08-07T02:22:25.644Z,3.50
2022-08-07T02:24:54.828Z,3.40
2022-08-07T02:27:23.851Z,3.78
2022-08-07T02:29:54.682Z,3.12
2022-08-07T02:32:29.990Z,3.40
2022-08-07T02:34:58.893Z,3.40
2022-08-07T02:37:30.599Z,3.10
2022-08-07T02:40:11.947Z,3.28
2022-08-07T02:42:54.898Z,3.33
2022-08-07T02:45:58.395Z,3.08
2022-08-07T02:48:15.642Z,3.43
2022-08-07T02:50:44.976Z,2.83
2022-08-07T02:53:43.557Z,3.53
2022-08-07T02:56:21.046Z,2.95
2022-08-07T02:58:54.215Z,3.20
2022-08-07T03:01:35.370Z,3.23
2022-08-07T03:04:12.855Z,2.95
2022-08-07T03:06:44.755Z,3.15
2022-08-07T03:09:14.746Z,2.70
2022-08-07T03:12:08.125Z,3.10
2022-08-07T03:14:52.189Z,3.00
2022-08-07T03:17:22.214Z,3.28
2022-08-07T03:19:55.188Z,3.50
2022-08-07T03:22:29.635Z,2.95
2022-08-07T03:25:00.161Z,2.92
2022-08-07T03:27:30.712Z,2.80
2022-08-07T03:30:10.897Z,2.78
2022-08-07T03:32:49.312Z,3.08
2022-08-07T03:35:44.025Z,3.15
2022-08-07T03:38:17.340Z,3.00
2022-08-07T03:40:57.225Z,3.77
2022-08-07T03:43:26.581Z,3.20
2022-08-07T03:45:55.162Z,2.90
2022-08-07T03:48:23.348Z,3.08
2022-08-07T03:50:57.515Z,3.50
2022-08-07T03:53:50.123Z,2.87
2022-08-07T03:56:19.203Z,2.80
2022-08-07T03:59:09.338Z,3.10
2022-08-07T04:01:43.250Z,3.03
2022-08-07T04:04:17.236Z,3.20
2022-08-07T04:06:46.154Z,3.33
2022-08-07T04:09:23.359Z,3.10
2022-08-07T04:12:21.189Z,3.30
2022-08-07T04:14:43.899Z,3.00
2022-08-07T04:17:20.772Z,3.30
2022-08-07T04:19:52.572Z,3.20
2022-08-07T04:22:27.404Z,3.08
2022-08-07T04:24:58.841Z,3.42
2022-08-07T04:27:35.867Z,3.30
2022-08-07T04:30:20.950Z,3.10
2022-08-07T04:32:57.871Z,3.03
2022-08-07T04:35:26.629Z,3.05
2022-08-07T04:38:06.928Z,2.90
2022-08-07T04:40:43.873Z,2.90
2022-08-07T04:43:22.131Z,2.92
2022-08-07T04:46:35.923Z,3.17
2022-08-07T04:49:37.502Z,3.00
2022-08-07T04:52:10.247Z,3.22
2022-08-07T04:54:54.361Z,2.75
2022-08-07T04:58:14.032Z,2.80
2022-08-07T05:00:48.107Z,2.23
2022-08-07T05:04:07.352Z,2.85
2022-08-07T05:06:53.766Z,3.17
2022-08-07T05:09:46.332Z,2.65
2022-08-07T05:12:27.116Z,3.05
2022-08-07T05:15:21.701Z,2.87
2022-08-07T05:18:01.552Z,2.87
2022-08-07T05:20:42.894Z,2.80
2022-08-07T05:23:16.100Z,3.10
2022-08-07T05:26:11.579Z,2.90
2022-08-07T05:28:35.250Z,2.13
2022-08-07T05:31:03.841Z,2.80
2022-08-07T05:33:35.569Z,2.87
2022-08-07T05:36:07.370Z,2.47
2022-08-07T05:38:59.848Z,3.03
2022-08-07T05:42:01.650Z,2.40
2022-08-07T05:44:18.532Z,2.60
2022-08-07T05:46:58.253Z,2.62
2022-08-07T05:49:40.755Z,2.85
2022-08-07T05:52:11.695Z,3.20
2022-08-07T05:54:53.846Z,2.80
2022-08-07T05:57:26.588Z,2.75
2022-08-07T05:59:59.446Z,2.65
2022-08-07T06:02:30.808Z,2.53
2022-08-07T06:05:06.067Z,2.55
2022-08-07T06:08:12.919Z,2.60
2022-08-07T06:10:23.621Z,2.72
2022-08-07T06:12:51.429Z,2.83
2022-08-07T06:15:20.390Z,3.10
2022-08-07T06:17:53.829Z,3.20
2022-08-07T06:20:32.152Z,2.40
2022-08-07T06:23:46.870Z,2.67
2022-08-07T06:26:00.891Z,3.15
2022-08-07T06:28:30.797Z,2.60
2022-08-07T06:30:59.246Z,2.78
2022-08-07T06:33:29.725Z,2.93
2022-08-07T06:36:06.472Z,3.08
2022-08-07T06:38:51.620Z,2.55
2022-08-07T06:42:01.970Z,2.58
2022-08-07T06:44:36.795Z,2.70
2022-08-07T06:47:10.112Z,3.37
2022-08-07T06:49:51.971Z,2.55
2022-08-07T06:52:35.581Z,2.83
2022-08-07T06:55:34.246Z,2.60
2022-08-07T06:58:05.262Z,2.72
2022-08-07T07:00:42.443Z,2.63
2022-08-07T07:03:13.896Z,2.60
2022-08-07T07:06:02.741Z,2.97
2022-08-07T07:08:35.236Z,2.87
2022-08-07T07:11:14.069Z,2.80
2022-08-07T07:13:58.674Z,2.40
2022-08-07T07:16:31.425Z,2.50
2022-08-07T07:19:54.395Z,2.33
2022-08-07T07:22:04.825Z,2.33
2022-08-07T07:24:42.972Z,2.40
2022-08-07T07:27:11.720Z,2.57
2022-08-07T07:30:07.410Z,2.37
2022-08-07T07:32:34.403Z,1.50
2022-08-07T07:35:03.951Z,1.70
2022-08-07T07:37:49.618Z,2.42
2022-08-07T07:40:26.041Z,1.77
2022-08-07T07:42:55.910Z,1.73
2022-08-07T07:46:37.072Z,1.50
2022-08-07T07:48:34.737Z,1.20
2022-08-07T07:51:07.732Z,1.20
2022-08-07T07:53:51.955Z,1.10
2022-08-07T07:56:29.978Z,1.30
2022-08-07T07:59:01.681Z,1.48
2022-08-07T08:02:03.512Z,1.65
2022-08-07T08:04:25.426Z,1.08
2022-08-07T08:06:54.416Z,1.00
2022-08-07T08:09:29.683Z,1.25
2022-08-07T08:12:03.006Z,1.62
2022-08-07T08:14:34.363Z,1.50
2022-08-07T08:17:48.368Z,1.67
2022-08-07T08:20:17.445Z,1.60
2022-08-07T08:23:08.097Z,1.77
2022-08-07T08:25:57.144Z,1.50
2022-08-07T08:28:37.614Z,1.30
2022-08-07T08:31:14.878Z,1.40
2022-08-07T08:33:49.459Z,1.60
2022-08-07T08:36:30.104Z,1.45
2022-08-07T08:39:02.000Z,1.70
2022-08-07T08:41:56.742Z,1.85
2022-08-07T08:44:41.222Z,1.90
2022-08-07T08:47:52.744Z,1.70
2022-08-07T08:50:35.094Z,1.77
2022-08-07T08:53:20.340Z,1.73
2022-08-07T08:55:58.484Z,1.65
2022-08-07T08:58:36.346Z,1.92
2022-08-07T09:01:29.579Z,1.93
2022-08-07T09:04:40.722Z,1.80
2022-08-07T09:07:23.056Z,1.80
2022-08-07T09:10:17.510Z,1.70
2022-08-07T09:13:00.938Z,1.70
2022-08-07T09:16:23.995Z,1.77
2022-08-07T09:19:07.307Z,1.75
2022-08-07T09:22:40.014Z,1.80
2022-08-07T09:25:17.347Z,1.77
2022-08-07T09:27:59.678Z,1.60
2022-08-07T09:30:54.719Z,1.87
2022-08-07T09:34:01.795Z,1.90
2022-08-07T09:36:37.101Z,1.73
2022-08-07T09:39:53.769Z,1.90
2022-08-07T09:42:46.671Z,1.98
2022-08-07T09:47:52.065Z,1.47
2022-08-07T09:49:02.550Z,1.80
2022-08-07T09:52:16.673Z,2.00
2022-08-07T09:54:40.894Z,1.87
2022-08-07T09:57:36.704Z,1.70
2022-08-07T10:00:14.464Z,1.87
2022-08-07T10:04:06.334Z,1.75
2022-08-07T10:06:04.411Z,1.77
2022-08-07T10:09:05.300Z,1.70
2022-08-07T10:12:18.203Z,2.62
2022-08-07T10:15:18.585Z,1.63
2022-08-07T10:18:26.467Z,1.70
2022-08-07T10:22:01.184Z,1.80
2022-08-07T10:24:25.843Z,1.90
2022-08-07T10:26:56.497Z,1.98
2022-08-07T10:29:45.764Z,2.17
2022-08-07T10:32:36.815Z,1.92
2022-08-07T10:35:26.618Z,2.42
2022-08-07T10:38:47.891Z,2.00
2022-08-07T10:41:47.051Z,1.80
2022-08-07T10:44:28.852Z,1.87
2022-08-07T10:47:50.661Z,1.62
2022-08-07T10:50:29.388Z,1.90
2022-08-07T10:53:28.601Z,1.90
2022-08-07T10:56:31.144Z,2.10
2022-08-07T10:59:30.207Z,1.83
2022-08-07T11:02:34.147Z,1.90
2022-08-07T11:05:10.682Z,1.90
2022-08-07T11:08:00.321Z,2.15
2022-08-07T11:10:41.379Z,1.98
2022-08-07T11:14:44.339Z,2.23
2022-08-07T11:16:41.219Z,2.00
2022-08-07T11:19:32.019Z,2.08
2022-08-07T11:22:06.232Z,2.33
2022-08-07T11:25:06.579Z,2.08
2022-08-07T11:28:01.238Z,2.00
2022-08-07T11:30:43.739Z,1.80
2022-08-07T11:33:59.909Z,1.87
2022-08-07T11:36:30.680Z,1.90
2022-08-07T11:39:04.691Z,2.00
2022-08-07T11:42:00.447Z,1.70
2022-08-07T11:44:52.127Z,2.10
2022-08-07T11:47:56.025Z,2.30
2022-08-07T11:50:58.063Z,2.40
2022-08-07T11:54:00.715Z,2.20
2022-08-07T11:56:40.997Z,2.13
2022-08-07T12:00:11.876Z,1.83
2022-08-07T12:02:59.684Z,2.03
2022-08-07T12:05:49.080Z,1.98
2022-08-07T12:08:31.380Z,2.10
2022-08-07T12:11:20.465Z,2.00
2022-08-07T12:13:54.127Z,2.55
2022-08-07T12:16:30.063Z,1.90
2022-08-07T12:19:07.727Z,1.87
2022-08-07T12:22:36.890Z,2.33
2022-08-07T12:26:21.635Z,2.37
2022-08-07T12:28:30.753Z,2.08
2022-08-07T12:31:24.632Z,2.58
2022-08-07T12:34:01.197Z,2.22
2022-08-07T12:36:33.421Z,2.20
2022-08-07T12:39:38.822Z,1.90
2022-08-07T12:41:53.975Z,2.10
2022-08-07T12:44:24.177Z,2.15
2022-08-07T12:47:01.511Z,2.17
2022-08-07T12:49:44.275Z,2.40
2022-08-07T12:52:29.051Z,2.70
2022-08-07T12:55:16.445Z,2.10
2022-08-07T12:58:00.127Z,2.42
2022-08-07T13:00:50.369Z,2.00
2022-08-07T13:04:00.559Z,2.10
2022-08-07T13:08:12.655Z,1.80
2022-08-07T13:10:38.978Z,2.37
2022-08-07T13:13:49.541Z,2.15
2022-08-07T13:16:32.821Z,2.08
2022-08-07T13:19:46.341Z,2.47
2022-08-07T13:22:31.332Z,2.10
2022-08-07T13:25:23.963Z,2.53
2022-08-07T13:28:12.687Z,2.25
2022-08-07T13:31:01.970Z,2.22
2022-08-07T13:34:30.293Z,2.55
2022-08-07T13:36:48.570Z,2.60
2022-08-07T13:40:32.728Z,2.65
2022-08-07T13:42:21.427Z,1.98
2022-08-07T13:45:11.641Z,3.10
2022-08-07T13:48:05.902Z,2.28
2022-08-07T13:50:33.730Z,2.10
2022-08-07T13:53:05.421Z,2.33
2022-08-07T13:55:34.060Z,2.80
2022-08-07T13:58:27.620Z,2.70
2022-08-07T14:01:00.515Z,2.20
2022-08-07T14:04:06.947Z,2.03
2022-08-07T14:06:32.979Z,2.03
2022-08-07T14:09:01.144Z,2.70
2022-08-07T14:12:00.481Z,2.70
2022-08-07T14:14:33.453Z,2.05
2022-08-07T14:17:32.032Z,2.40
2022-08-07T14:20:40.550Z,2.15
2022-08-07T14:23:01.747Z,2.33
2022-08-07T14:25:39.161Z,2.00
2022-08-07T14:28:13.400Z,2.20
2022-08-07T14:30:47.298Z,2.50
2022-08-07T14:33:23.459Z,2.55
2022-08-07T14:35:58.783Z,2.90
2022-08-07T14:38:31.199Z,2.37
2022-08-07T14:41:04.179Z,2.30
2022-08-07T14:43:55.169Z,2.20
2022-08-07T14:46:28.979Z,2.78
2022-08-07T14:49:17.164Z,2.65
2022-08-07T14:52:03.267Z,2.00
2022-08-07T14:54:42.244Z,2.28
2022-08-07T14:57:14.983Z,2.30
2022-08-07T15:00:05.667Z,2.92
2022-08-07T15:02:37.289Z,2.67
2022-08-07T15:05:19.612Z,2.80
2022-08-07T15:07:52.072Z,2.37
2022-08-07T15:10:25.934Z,2.13
2022-08-07T15:13:11.681Z,2.55
2022-08-07T15:15:43.962Z,2.40
2022-08-07T15:18:36.825Z,2.08
2022-08-07T15:21:43.995Z,2.85
2022-08-07T15:25:15.253Z,1.93
2022-08-07T15:27:15.280Z,2.20
2022-08-07T15:30:06.772Z,2.17
2022-08-07T15:32:51.098Z,2.00
2022-08-07T15:36:02.667Z,2.30
2022-08-07T15:38:30.568Z,1.83
2022-08-07T15:41:23.790Z,2.30
2022-08-07T15:44:03.881Z,2.58
2022-08-07T15:50:05.449Z,2.50
2022-08-07T15:52:20.882Z,2.00
2022-08-07T15:54:50.829Z,1.85
2022-08-07T15:57:39.419Z,2.60
2022-08-07T16:00:09.468Z,2.08
2022-08-07T16:02:59.188Z,2.08
2022-08-07T16:05:31.133Z,2.00
2022-08-07T16:08:30.579Z,1.85
2022-08-07T16:11:27.138Z,2.37
2022-08-07T16:14:03.169Z,1.90
2022-08-07T16:16:57.307Z,2.78
2022-08-07T16:19:58.748Z,2.13
2022-08-07T16:22:55.742Z,2.20
2022-08-07T16:25:27.727Z,2.28
2022-08-07T16:30:08.755Z,1.80
2022-08-07T16:31:51.378Z,1.98
2022-08-07T16:34:24.749Z,2.10
2022-08-07T16:38:05.997Z,2.20
2022-08-07T16:40:34.594Z,2.30
2022-08-07T16:43:12.716Z,2.15
2022-08-07T16:46:40.335Z,2.20
2022-08-07T16:50:27.288Z,2.30
2022-08-07T16:52:51.052Z,2.10
2022-08-07T16:55:47.431Z,2.45
2022-08-07T16:59:11.164Z,2.15
2022-08-07T17:01:49.151Z,1.90
2022-08-07T17:04:51.023Z,2.30
2022-08-07T17:07:55.672Z,2.22
2022-08-07T17:10:43.994Z,2.40
2022-08-07T17:14:19.176Z,2.00
2022-08-07T17:16:59.531Z,2.17
2022-08-07T17:20:00.749Z,1.90
2022-08-07T17:22:48.580Z,2.10
2022-08-07T17:25:19.426Z,2.35
2022-08-07T17:28:00.683Z,2.00
2022-08-07T17:30:57.749Z,1.95
2022-08-07T17:34:09.066Z,1.97
2022-08-07T17:36:26.237Z,2.33
2022-08-07T17:39:15.812Z,2.70
2022-08-07T17:42:02.490Z,2.10
2022-08-07T17:44:45.480Z,2.50
2022-08-07T17:47:44.733Z,1.90
2022-08-07T17:50:30.532Z,1.98
2022-08-07T17:53:59.574Z,2.15
2022-08-07T17:56:06.703Z,2.10
2022-08-07T17:58:57.429Z,2.20
2022-08-07T18:01:37.930Z,2.17
2022-08-07T18:04:38.189Z,2.10
2022-08-07T18:07:20.898Z,2.50
2022-08-07T18:10:29.023Z,1.90
2022-08-07T18:13:00.657Z,2.03
2022-08-07T18:15:35.725Z,2.17
2022-08-07T18:19:02.717Z,2.03
2022-08-07T18:21:51.785Z,2.20
2022-08-07T18:24:42.546Z,1.90
2022-08-07T18:27:20.966Z,2.30
2022-08-07T18:30:31.124Z,1.90
2022-08-07T18:33:36.776Z,2.15
2022-08-07T18:36:33.399Z,2.03
2022-08-07T18:40:08.407Z,2.10
2022-08-07T18:42:16.291Z,1.55
2022-08-07T18:48:05.464Z,1.65
2022-08-07T18:50:58.488Z,1.75
2022-08-07T18:53:44.276Z,1.67
2022-08-07T18:56:34.929Z,1.75
2022-08-07T18:59:47.325Z,2.17
2022-08-07T19:02:36.877Z,1.73
2022-08-07T19:06:01.891Z,2.15
2022-08-07T19:08:26.623Z,1.98
2022-08-07T19:11:34.928Z,1.85
2022-08-07T19:14:16.819Z,1.67
2022-08-07T19:17:05.644Z,1.80
2022-08-07T19:19:56.088Z,1.70
2022-08-07T19:22:31.996Z,1.58
2022-08-07T19:25:06.674Z,2.00
2022-08-07T19:28:58.487Z,1.60
2022-08-07T19:31:05.678Z,1.70
2022-08-07T19:33:16.066Z,1.92
2022-08-07T19:35:50.280Z,1.55
2022-08-07T19:38:20.550Z,1.98
2022-08-07T19:40:51.256Z,1.57
2022-08-07T19:43:49.561Z,1.42
2022-08-07T19:46:12.315Z,1.65
2022-08-07T19:48:53.788Z,1.90
2022-08-07T19:51:52.498Z,1.35
2022-08-07T19:54:31.588Z,1.87
2022-08-07T19:58:02.804Z,1.48
2022-08-07T20:00:08.941Z,1.77
2022-08-07T20:02:53.473Z,1.40
2022-08-07T20:05:30.439Z,1.50
2022-08-07T20:08:25.233Z,1.63
2022-08-07T20:11:01.745Z,1.70
2022-08-07T20:13:38.060Z,1.92
2022-08-07T20:16:35.925Z,1.37
2022-08-07T20:19:10.927Z,1.65
2022-08-07T20:21:46.692Z,1.57
2022-08-07T20:24:28.882Z,1.60
2022-08-07T20:27:02.297Z,1.90
2022-08-07T20:29:48.211Z,1.92
2022-08-07T20:32:38.870Z,1.77
2022-08-07T20:35:15.879Z,1.90
2022-08-07T20:37:55.626Z,1.55
2022-08-07T20:40:32.590Z,1.85
2022-08-07T20:43:14.743Z,1.70
2022-08-07T20:46:27.745Z,1.67
2022-08-07T20:49:55.172Z,1.50
2022-08-07T20:51:35.926Z,1.48
2022-08-07T20:54:11.985Z,1.52
2022-08-07T20:56:46.133Z,1.55
2022-08-07T21:00:04.219Z,1.30
2022-08-07T21:02:39.199Z,1.20
2022-08-07T21:05:16.577Z,1.25
2022-08-07T21:07:49.599Z,1.23
2022-08-07T21:10:29.610Z,1.30
2022-08-07T21:13:01.033Z,1.30
2022-08-07T21:15:48.180Z,1.43
2022-08-07T21:18:29.559Z,1.50
2022-08-07T21:21:01.796Z,1.30
2022-08-07T21:23:54.545Z,1.27
2022-08-07T21:26:35.212Z,1.62
2022-08-07T21:29:18.131Z,1.20
2022-08-07T21:32:43.646Z,1.00
2022-08-07T21:35:02.350Z,1.40
2022-08-07T21:37:59.155Z,1.15
2022-08-07T21:40:52.808Z,1.30
2022-08-07T21:43:47.449Z,1.30
2022-08-07T21:46:24.521Z,1.27
2022-08-07T21:49:40.654Z,1.10
2022-08-07T21:52:55.121Z,1.10
2022-08-07T21:55:40.694Z,1.48
2022-08-07T21:58:32.819Z,0.90
2022-08-07T22:01:04.349Z,1.10
2022-08-07T22:04:00.609Z,1.40
2022-08-07T22:06:45.013Z,1.17
2022-08-07T22:09:16.233Z,1.27
2022-08-07T22:12:05.630Z,1.00
2022-08-07T22:14:44.049Z,1.37
2022-08-07T22:17:35.938Z,1.35
2022-08-07T22:20:23.073Z,0.90
2022-08-07T22:22:57.231Z,1.30
2022-08-07T22:25:36.193Z,0.90
2022-08-07T22:28:31.556Z,1.23
2022-08-07T22:31:59.641Z,1.10
2022-08-07T22:34:13.678Z,1.15
2022-08-07T22:36:52.651Z,1.10
2022-08-07T22:39:29.220Z,1.20
2022-08-07T22:42:19.265Z,1.00
2022-08-07T22:44:58.798Z,1.00
2022-08-07T22:48:01.343Z,1.00
2022-08-07T22:50:51.208Z,1.23
2022-08-07T22:54:07.030Z,1.00
2022-08-07T22:56:54.136Z,0.90
2022-08-07T22:59:43.900Z,1.08
2022-08-07T23:02:33.636Z,1.17
2022-08-07T23:06:10.075Z,0.98
2022-08-07T23:08:46.104Z,0.70
2022-08-07T23:11:44.226Z,1.00
2022-08-07T23:14:16.443Z,0.95
2022-08-07T23:17:03.126Z,1.00
2022-08-07T23:20:00.121Z,1.08
2022-08-07T23:22:52.280Z,0.90
2022-08-07T23:26:05.707Z,1.10
2022-08-07T23:28:48.942Z,0.80
2022-08-07T23:32:49.594Z,1.10
2022-08-07T23:34:55.977Z,1.08
2022-08-07T23:38:01.111Z,0.90
2022-08-07T23:40:51.766Z,0.90
2022-08-07T23:44:01.098Z,1.02
2022-08-07T23:46:34.899Z,0.80
2022-08-07T23:49:15.445Z,1.00
2022-08-07T23:53:01.039Z,1.20
2022-08-07T23:54:43.928Z,0.93
2022-08-07T23:57:20.229Z,1.10
